createdAt,value
2022-12-15T00:00:36.990Z,21.30
2022-12-15T00:03:23.167Z,23.23
2022-12-15T00:06:03.091Z,22.27
2022-12-15T00:08:42.904Z,26.13
2022-12-15T00:11:23.212Z,18.97
2022-12-15T00:14:03.116Z,23.57
2022-12-15T00:16:43.200Z,24.67
2022-12-15T00:19:24.022Z,23.43
2022-12-15T00:22:04.150Z,18.07
2022-12-15T00:24:44.043Z,21.83
2022-12-15T00:27:24.570Z,19.60
2022-12-15T00:30:05.106Z,25.83
2022-12-15T00:32:44.934Z,31.67
2022-12-15T00:35:25.455Z,31.17
2022-12-15T00:38:05.422Z,24.93
2022-12-15T00:40:26.875Z,24.03
2022-12-15T00:42:49.607Z,20.50
2022-12-15T00:45:11.322Z,23.57
2022-12-15T00:47:33.527Z,19.60
2022-12-15T00:50:13.644Z,21.30
2022-12-15T00:52:54.266Z,19.13
2022-12-15T00:55:34.336Z,21.70
2022-12-15T00:58:14.226Z,18.47
2022-12-15T01:00:54.434Z,19.10
2022-12-15T01:03:39.895Z,18.77
2022-12-15T01:06:24.449Z,20.30
2022-12-15T01:09:04.174Z,19.73
2022-12-15T01:11:44.419Z,17.97
2022-12-15T01:14:24.369Z,20.70
2022-12-15T01:17:04.183Z,17.13
2022-12-15T01:19:43.876Z,20.73
2022-12-15T01:22:07.018Z,15.93
2022-12-15T01:24:28.507Z,19.97
2022-12-15T01:26:50.063Z,18.40
2022-12-15T01:29:11.511Z,16.53
2022-12-15T01:31:33.039Z,20.00
2022-12-15T01:33:55.408Z,17.07
2022-12-15T01:36:16.880Z,20.17
2022-12-15T01:38:38.653Z,18.67
2022-12-15T01:41:06.677Z,19.73
2022-12-15T01:43:32.472Z,17.37
2022-12-15T01:46:01.980Z,19.63
2022-12-15T01:48:28.383Z,21.50
2022-12-15T01:51:04.480Z,20.87
2022-12-15T01:53:27.375Z,21.67
2022-12-15T01:55:49.707Z,17.13
2022-12-15T01:58:13.535Z,21.03
2022-12-15T02:00:35.169Z,20.03
2022-12-15T02:02:59.059Z,19.50
2022-12-15T02:05:21.511Z,23.50
2022-12-15T02:07:42.952Z,17.80
2022-12-15T02:10:07.400Z,19.77
2022-12-15T02:12:35.896Z,18.47
2022-12-15T02:15:25.391Z,18.50
2022-12-15T02:17:49.763Z,18.13
2022-12-15T02:20:44.816Z,18.37
2022-12-15T02:23:15.213Z,17.43
2022-12-15T02:26:09.738Z,15.20
2022-12-15T02:28:49.316Z,17.77
2022-12-15T02:31:39.415Z,16.07
2022-12-15T02:34:11.163Z,17.53
2022-12-15T02:36:37.283Z,18.40
2022-12-15T02:38:58.782Z,19.00
2022-12-15T02:41:39.667Z,17.37
2022-12-15T02:44:05.575Z,16.80
2022-12-15T02:46:41.314Z,18.80
2022-12-15T02:49:36.957Z,16.60
2022-12-15T02:52:30.862Z,16.67
2022-12-15T02:54:58.457Z,14.80
2022-12-15T02:58:00.033Z,18.43
2022-12-15T03:00:22.739Z,23.13
2022-12-15T03:02:53.182Z,22.00
2022-12-15T03:05:16.489Z,20.47
2022-12-15T03:07:37.995Z,18.87
2022-12-15T03:10:02.318Z,18.97
2022-12-15T03:12:23.871Z,18.30
2022-12-15T03:14:45.344Z,17.47
2022-12-15T03:17:07.575Z,17.77
2022-12-15T03:19:28.993Z,18.40
2022-12-15T03:21:50.442Z,17.83
2022-12-15T03:24:12.021Z,18.47
2022-12-15T03:26:33.592Z,19.70
2022-12-15T03:28:55.036Z,18.77
2022-12-15T03:31:16.519Z,19.47
2022-12-15T03:33:38.013Z,18.57
2022-12-15T03:36:00.091Z,19.50
2022-12-15T03:38:21.604Z,17.83
2022-12-15T03:40:43.076Z,18.60
2022-12-15T03:43:04.534Z,17.73
2022-12-15T03:45:28.091Z,17.37
2022-12-15T03:47:50.480Z,16.83
2022-12-15T03:50:13.807Z,17.67
2022-12-15T03:52:36.126Z,16.47
2022-12-15T03:54:57.536Z,17.73
2022-12-15T03:57:18.983Z,17.23
2022-12-15T03:59:40.436Z,15.47
2022-12-15T04:02:01.955Z,16.07
2022-12-15T04:04:23.586Z,16.03
2022-12-15T04:06:45.107Z,15.23
2022-12-15T04:09:06.534Z,20.37
2022-12-15T04:11:28.010Z,15.97
2022-12-15T04:13:49.461Z,16.47
2022-12-15T04:16:14.798Z,17.37
2022-12-15T04:18:39.402Z,19.93
2022-12-15T04:21:00.859Z,21.43
2022-12-15T04:23:22.949Z,26.17
2022-12-15T04:26:03.129Z,26.97
2022-12-15T04:28:42.831Z,22.77
2022-12-15T04:31:38.494Z,19.93
2022-12-15T04:34:22.441Z,20.83
2022-12-15T04:37:05.527Z,19.37
2022-12-15T04:39:46.452Z,18.37
2022-12-15T04:42:26.572Z,19.30
2022-12-15T04:45:12.206Z,21.93
2022-12-15T04:47:54.621Z,21.87
2022-12-15T04:50:34.728Z,20.73
2022-12-15T04:53:14.528Z,27.47
2022-12-15T04:55:55.153Z,26.47
2022-12-15T04:58:35.194Z,20.30
2022-12-15T05:01:18.391Z,18.63
2022-12-15T05:03:58.643Z,23.23
2022-12-15T05:06:39.070Z,22.63
2022-12-15T05:09:18.926Z,21.17
2022-12-15T05:11:58.656Z,25.10
2022-12-15T05:14:38.423Z,23.43
2022-12-15T05:17:18.654Z,20.13
2022-12-15T05:19:58.788Z,21.53
2022-12-15T05:22:38.882Z,20.57
2022-12-15T05:25:18.640Z,21.23
2022-12-15T05:27:58.532Z,28.83
2022-12-15T05:30:38.743Z,34.37
2022-12-15T05:33:04.492Z,39.07
2022-12-15T05:35:25.993Z,32.83
2022-12-15T05:37:47.444Z,31.17
2022-12-15T05:40:09.802Z,25.60
2022-12-15T05:42:31.252Z,23.43
2022-12-15T05:44:52.758Z,22.37
2022-12-15T05:47:14.230Z,21.63
2022-12-15T05:49:35.789Z,17.67
2022-12-15T05:51:57.364Z,20.20
2022-12-15T05:54:19.766Z,19.17
2022-12-15T05:56:41.672Z,18.37
2022-12-15T05:59:04.270Z,19.77
2022-12-15T06:01:26.857Z,19.30
2022-12-15T06:03:48.434Z,27.00
2022-12-15T06:06:12.035Z,28.43
2022-12-15T06:08:35.997Z,29.90
2022-12-15T06:10:57.552Z,35.73
2022-12-15T06:13:19.114Z,23.77
2022-12-15T06:15:40.565Z,20.67
2022-12-15T06:18:02.064Z,22.93
2022-12-15T06:20:24.290Z,22.17
2022-12-15T06:22:49.883Z,24.27
2022-12-15T06:25:11.690Z,25.20
2022-12-15T06:27:36.208Z,23.13
2022-12-15T06:29:57.688Z,20.50
2022-12-15T06:32:21.277Z,21.10
2022-12-15T06:34:42.814Z,23.83
2022-12-15T06:37:04.554Z,24.20
2022-12-15T06:39:26.023Z,30.10
2022-12-15T06:41:47.568Z,25.63
2022-12-15T06:44:13.231Z,25.87
2022-12-15T06:46:35.185Z,22.20
2022-12-15T06:48:57.537Z,24.33
2022-12-15T06:51:19.469Z,20.70
2022-12-15T06:53:42.674Z,23.70
2022-12-15T06:56:07.376Z,21.37
2022-12-15T06:58:28.891Z,26.37
2022-12-15T07:00:50.354Z,23.90
2022-12-15T07:03:17.268Z,25.23
2022-12-15T07:05:38.827Z,24.67
2022-12-15T07:08:00.302Z,23.30
2022-12-15T07:10:21.724Z,23.70
2022-12-15T07:12:43.188Z,26.23
2022-12-15T07:15:05.300Z,27.73
2022-12-15T07:17:26.943Z,21.40
2022-12-15T07:19:48.364Z,20.53
2022-12-15T07:22:09.813Z,22.17
2022-12-15T07:24:31.324Z,24.70
2022-12-15T07:26:52.775Z,27.07
2022-12-15T07:29:19.559Z,28.63
2022-12-15T07:31:44.472Z,28.37
2022-12-15T07:34:05.999Z,30.47
2022-12-15T07:36:30.319Z,23.60
2022-12-15T07:38:52.102Z,25.13
2022-12-15T07:41:13.701Z,25.20
2022-12-15T07:43:36.246Z,26.47
2022-12-15T07:45:58.391Z,24.23
2022-12-15T07:48:20.591Z,26.97
2022-12-15T07:50:42.017Z,29.77
2022-12-15T07:53:03.485Z,22.53
2022-12-15T07:55:50.050Z,23.63
2022-12-15T07:58:06.991Z,27.10
2022-12-15T08:00:28.890Z,28.77
2022-12-15T08:02:50.545Z,25.40
2022-12-15T08:05:12.190Z,26.23
2022-12-15T08:07:33.710Z,27.90
2022-12-15T08:09:55.176Z,25.77
2022-12-15T08:12:17.143Z,26.83
2022-12-15T08:14:38.570Z,25.00
2022-12-15T08:17:00.190Z,24.73
2022-12-15T08:19:21.719Z,25.50
2022-12-15T08:21:45.499Z,28.83
2022-12-15T08:24:08.328Z,25.47
2022-12-15T08:26:31.135Z,29.23
2022-12-15T08:28:53.019Z,32.87
2022-12-15T08:31:17.596Z,31.20
2022-12-15T08:33:39.482Z,31.83
2022-12-15T08:36:03.184Z,35.70
2022-12-15T08:38:24.648Z,33.50
2022-12-15T08:40:46.130Z,31.17
2022-12-15T08:43:07.601Z,32.83
2022-12-15T08:45:29.090Z,29.07
2022-12-15T08:47:50.549Z,27.67
2022-12-15T08:50:12.041Z,28.53
2022-12-15T08:52:34.001Z,29.93
2022-12-15T08:54:55.523Z,29.43
2022-12-15T08:57:16.969Z,29.87
2022-12-15T08:59:38.490Z,25.73
2022-12-15T09:02:00.550Z,25.23
2022-12-15T09:04:22.116Z,25.20
2022-12-15T09:06:44.180Z,26.10
2022-12-15T09:09:12.105Z,25.03
2022-12-15T09:11:34.259Z,33.33
2022-12-15T09:13:56.102Z,32.27
2022-12-15T09:16:19.145Z,30.67
2022-12-15T09:18:46.731Z,31.57
2022-12-15T09:21:08.359Z,36.93
2022-12-15T09:23:30.383Z,40.23
2022-12-15T09:25:59.696Z,39.73
2022-12-15T09:28:21.199Z,43.73
2022-12-15T09:30:42.847Z,39.43
2022-12-15T09:33:04.511Z,35.00
2022-12-15T09:35:28.967Z,32.70
2022-12-15T09:37:52.048Z,32.20
2022-12-15T09:40:13.935Z,30.33
2022-12-15T09:42:35.509Z,31.03
2022-12-15T09:45:03.115Z,34.93
2022-12-15T09:47:35.018Z,37.10
2022-12-15T09:49:58.369Z,37.33
2022-12-15T09:52:25.679Z,31.83
2022-12-15T09:54:47.394Z,31.77
2022-12-15T09:57:27.129Z,37.13
2022-12-15T10:00:08.205Z,33.93
2022-12-15T10:02:41.779Z,40.87
2022-12-15T10:05:50.147Z,37.43
2022-12-15T10:08:13.652Z,32.03
2022-12-15T10:10:43.536Z,38.10
2022-12-15T10:13:15.477Z,29.87
2022-12-15T10:15:53.243Z,34.40
2022-12-15T10:18:17.669Z,27.10
2022-12-15T10:20:39.446Z,34.33
2022-12-15T10:23:12.356Z,29.77
2022-12-15T10:25:33.832Z,25.07
2022-12-15T10:28:13.739Z,25.83
2022-12-15T10:30:39.471Z,27.80
2022-12-15T10:33:19.257Z,30.60
2022-12-15T10:35:43.928Z,30.67
2022-12-15T10:38:24.207Z,27.60
2022-12-15T10:41:07.592Z,28.40
2022-12-15T10:43:35.692Z,24.03
2022-12-15T10:46:02.036Z,21.37
2022-12-15T10:48:23.537Z,26.03
2022-12-15T10:50:45.014Z,36.73
2022-12-15T10:53:09.503Z,22.40
2022-12-15T10:55:43.841Z,23.83
2022-12-15T10:58:20.954Z,27.20
2022-12-15T11:00:42.451Z,23.37
2022-12-15T11:03:21.834Z,25.33
2022-12-15T11:05:52.145Z,24.90
2022-12-15T11:08:16.341Z,25.37
2022-12-15T11:11:16.267Z,28.63
2022-12-15T11:13:38.420Z,36.13
2022-12-15T11:16:11.003Z,32.97
2022-12-15T11:18:38.706Z,30.47
2022-12-15T11:21:21.573Z,32.03
2022-12-15T11:24:12.116Z,30.13
2022-12-15T11:26:51.021Z,33.93
2022-12-15T11:29:34.528Z,28.57
2022-12-15T11:32:01.435Z,29.97
2022-12-15T11:34:37.711Z,31.50
2022-12-15T11:37:20.321Z,26.63
2022-12-15T11:39:56.941Z,28.03
2022-12-15T11:42:38.780Z,28.33
2022-12-15T11:45:24.613Z,27.53
2022-12-15T11:47:55.200Z,31.33
2022-12-15T11:50:28.661Z,31.50
2022-12-15T11:52:54.877Z,24.23
2022-12-15T11:55:47.044Z,23.90
2022-12-15T11:58:42.962Z,27.77
2022-12-15T12:01:16.250Z,24.57
2022-12-15T12:03:55.715Z,23.00
2022-12-15T12:06:25.068Z,23.13
2022-12-15T12:09:15.786Z,21.37
2022-12-15T12:11:56.072Z,21.37
2022-12-15T12:14:38.998Z,21.77
2022-12-15T12:17:10.359Z,22.73
2022-12-15T12:19:40.390Z,23.13
2022-12-15T12:22:27.029Z,24.07
2022-12-15T12:24:56.630Z,21.70
2022-12-15T12:27:29.750Z,18.50
2022-12-15T12:29:55.438Z,18.97
2022-12-15T12:32:40.428Z,18.50
2022-12-15T12:35:31.249Z,21.67
2022-12-15T12:38:03.316Z,19.03
2022-12-15T12:40:36.999Z,18.70
2022-12-15T12:42:59.921Z,18.07
2022-12-15T12:45:27.669Z,18.93
2022-12-15T12:47:51.514Z,17.87
2022-12-15T12:50:16.286Z,18.37
2022-12-15T12:52:38.120Z,18.07
2022-12-15T12:55:03.227Z,17.77
2022-12-15T12:57:35.245Z,15.00
2022-12-15T13:00:00.824Z,19.50
2022-12-15T13:02:24.636Z,16.97
2022-12-15T13:05:04.425Z,18.70
2022-12-15T13:07:32.066Z,27.50
2022-12-15T13:10:08.954Z,24.03
2022-12-15T13:15:29.982Z,22.70
2022-12-15T13:17:55.727Z,20.50
2022-12-15T13:20:29.647Z,18.67
2022-12-15T13:22:51.872Z,17.30
2022-12-15T13:25:37.854Z,18.93
2022-12-15T13:28:02.338Z,19.37
2022-12-15T13:30:24.046Z,19.53
2022-12-15T13:32:47.327Z,19.30
2022-12-15T13:35:11.961Z,19.33
2022-12-15T13:37:53.757Z,18.07
2022-12-15T13:40:26.094Z,18.07
2022-12-15T13:42:56.271Z,17.13
2022-12-15T13:45:33.080Z,21.00
2022-12-15T13:47:56.193Z,22.10
2022-12-15T13:50:31.044Z,24.23
2022-12-15T13:55:46.207Z,28.23
2022-12-15T13:58:16.866Z,27.50
2022-12-15T14:00:39.588Z,25.90
2022-12-15T14:03:11.774Z,25.07
2022-12-15T14:05:33.449Z,20.23
2022-12-15T14:07:56.156Z,18.83
2022-12-15T14:10:21.961Z,18.03
2022-12-15T14:12:45.107Z,16.07
2022-12-15T14:15:14.509Z,20.07
2022-12-15T14:17:36.608Z,21.10
2022-12-15T14:19:58.026Z,20.67
2022-12-15T14:22:28.635Z,18.40
2022-12-15T14:24:52.002Z,19.10
2022-12-15T14:27:31.621Z,16.23
2022-12-15T14:30:35.525Z,14.50
2022-12-15T14:33:10.901Z,16.43
2022-12-15T14:35:44.114Z,18.63
2022-12-15T14:38:24.191Z,17.47
2022-12-15T14:40:49.274Z,15.53
2022-12-15T14:43:19.171Z,16.87
2022-12-15T14:45:40.853Z,17.20
2022-12-15T14:50:51.255Z,16.10
2022-12-15T14:53:17.058Z,17.50
2022-12-15T14:55:39.511Z,20.30
2022-12-15T14:58:02.458Z,17.17
2022-12-15T15:00:31.641Z,16.00
2022-12-15T15:03:18.336Z,16.33
2022-12-15T15:06:11.020Z,16.63
2022-12-15T15:08:43.063Z,16.80
2022-12-15T15:11:20.273Z,16.87
2022-12-15T15:13:41.926Z,18.50
2022-12-15T15:16:06.973Z,16.70
2022-12-15T15:18:29.840Z,15.67
2022-12-15T15:21:03.351Z,16.27
2022-12-15T15:23:24.807Z,20.77
2022-12-15T15:25:51.984Z,15.23
2022-12-15T15:28:19.222Z,19.97
2022-12-15T15:30:43.940Z,24.37
2022-12-15T15:33:08.828Z,17.83
2022-12-15T15:35:33.324Z,25.57
2022-12-15T15:38:02.261Z,38.17
2022-12-15T15:40:23.955Z,40.67
2022-12-15T15:42:45.811Z,35.80
2022-12-15T15:45:14.720Z,36.67
2022-12-15T15:47:36.829Z,31.70
2022-12-15T15:49:59.907Z,32.80
2022-12-15T15:52:22.319Z,26.43
2022-12-15T15:54:44.693Z,30.00
2022-12-15T15:57:06.158Z,27.57
2022-12-15T15:59:28.981Z,23.60
2022-12-15T16:01:55.885Z,24.60
2022-12-15T16:04:17.585Z,21.80
2022-12-15T16:06:45.120Z,22.60
2022-12-15T16:09:12.739Z,23.57
2022-12-15T16:11:35.242Z,24.13
2022-12-15T16:13:56.912Z,27.63
2022-12-15T16:16:21.529Z,30.67
2022-12-15T16:18:43.047Z,30.33
2022-12-15T16:21:04.565Z,26.80
2022-12-15T16:23:29.119Z,27.33
2022-12-15T16:25:56.729Z,39.10
2022-12-15T16:28:21.502Z,30.90
2022-12-15T16:30:43.696Z,27.50
2022-12-15T16:33:05.186Z,22.13
2022-12-15T16:35:26.785Z,24.70
2022-12-15T16:37:49.230Z,25.50
2022-12-15T16:40:18.098Z,23.57
2022-12-15T16:42:39.616Z,27.20
2022-12-15T16:45:02.232Z,24.10
2022-12-15T16:47:23.705Z,33.03
2022-12-15T16:49:45.233Z,30.67
2022-12-15T16:52:18.002Z,27.57
2022-12-15T16:54:40.132Z,25.87
2022-12-15T16:57:02.108Z,28.83
2022-12-15T16:59:34.892Z,24.57
2022-12-15T17:01:57.722Z,22.20
2022-12-15T17:04:19.547Z,22.60
2022-12-15T17:06:40.998Z,25.27
2022-12-15T17:09:02.735Z,24.57
2022-12-15T17:11:26.613Z,19.70
2022-12-15T17:13:51.311Z,19.73
2022-12-15T17:16:16.015Z,22.00
2022-12-15T17:18:37.539Z,21.13
2022-12-15T17:21:15.818Z,22.27
2022-12-15T17:23:37.361Z,20.57
2022-12-15T17:26:22.660Z,20.70
2022-12-15T17:28:40.741Z,24.13
2022-12-15T17:31:02.797Z,24.30
2022-12-15T17:33:27.434Z,21.17
2022-12-15T17:35:51.758Z,21.40
2022-12-15T17:38:16.635Z,22.27
2022-12-15T17:40:38.107Z,20.70
2022-12-15T17:42:59.577Z,21.47
2022-12-15T17:45:23.781Z,23.97
2022-12-15T17:47:45.692Z,18.83
2022-12-15T17:50:07.753Z,21.63
2022-12-15T17:52:34.416Z,18.67
2022-12-15T17:54:56.692Z,20.53
2022-12-15T17:57:18.387Z,18.90
2022-12-15T17:59:39.888Z,19.53
2022-12-15T18:02:42.688Z,25.13
2022-12-15T18:05:04.775Z,26.47
2022-12-15T18:07:26.284Z,25.87
2022-12-15T18:09:49.582Z,28.03
2022-12-15T18:12:29.696Z,27.93
2022-12-15T18:14:52.009Z,38.77
2022-12-15T18:17:14.252Z,40.63
2022-12-15T18:19:35.708Z,34.57
2022-12-15T18:21:57.165Z,32.17
2022-12-15T18:24:21.535Z,34.03
2022-12-15T18:26:43.152Z,32.23
2022-12-15T18:29:17.587Z,31.43
2022-12-15T18:31:39.187Z,33.20
2022-12-15T18:34:04.725Z,32.30
2022-12-15T18:36:26.637Z,32.47
2022-12-15T18:38:48.874Z,36.43
2022-12-15T18:41:15.169Z,34.97
2022-12-15T18:43:36.742Z,34.43
2022-12-15T18:45:58.904Z,30.67
2022-12-15T18:48:24.801Z,46.23
2022-12-15T18:50:48.461Z,38.13
2022-12-15T18:53:17.607Z,37.13
2022-12-15T18:55:39.106Z,65.57
2022-12-15T18:58:01.772Z,38.77
2022-12-15T19:00:30.267Z,36.40
2022-12-15T19:02:53.063Z,27.80
2022-12-15T19:05:28.412Z,33.20
2022-12-15T19:07:49.900Z,31.70
2022-12-15T19:10:14.543Z,33.53
2022-12-15T19:12:36.037Z,37.97
2022-12-15T19:14:57.499Z,31.63
2022-12-15T19:17:41.979Z,31.93
2022-12-15T19:20:33.428Z,32.93
2022-12-15T19:22:54.943Z,27.90
2022-12-15T19:25:26.692Z,30.70
2022-12-15T19:27:48.268Z,26.13
2022-12-15T19:30:18.359Z,34.93
2022-12-15T19:32:39.851Z,27.50
2022-12-15T19:35:01.346Z,24.63
2022-12-15T19:37:29.473Z,25.13
2022-12-15T19:39:52.028Z,23.57
2022-12-15T19:42:23.957Z,23.83
2022-12-15T19:44:45.539Z,22.10
2022-12-15T19:47:13.631Z,24.07
2022-12-15T19:49:35.192Z,25.67
2022-12-15T19:51:56.682Z,31.33
2022-12-15T19:54:21.297Z,26.53
2022-12-15T19:56:42.829Z,23.27
2022-12-15T19:59:04.335Z,24.23
2022-12-15T20:01:26.018Z,26.43
2022-12-15T20:03:50.331Z,27.40
2022-12-15T20:06:25.663Z,30.90
2022-12-15T20:08:50.203Z,30.23
2022-12-15T20:11:21.047Z,30.40
2022-12-15T20:13:42.538Z,51.97
2022-12-15T20:16:04.160Z,47.90
2022-12-15T20:18:25.639Z,59.73
2022-12-15T20:20:48.741Z,51.37
2022-12-15T20:23:19.884Z,56.13
2022-12-15T20:25:42.559Z,43.23
2022-12-15T20:28:06.848Z,36.77
2022-12-15T20:30:32.691Z,37.40
2022-12-15T20:32:54.576Z,37.97
2022-12-15T20:35:17.643Z,43.37
2022-12-15T20:37:39.177Z,37.53
2022-12-15T20:40:00.677Z,37.07
2022-12-15T20:42:22.686Z,37.10
2022-12-15T20:44:44.264Z,34.57
2022-12-15T20:47:06.070Z,34.07
2022-12-15T20:49:28.260Z,35.17
2022-12-15T20:51:50.689Z,35.03
2022-12-15T20:54:17.724Z,31.47
2022-12-15T20:56:39.265Z,30.73
2022-12-15T20:59:00.762Z,29.07
2022-12-15T21:01:28.300Z,30.93
2022-12-15T21:03:53.403Z,32.17
2022-12-15T21:06:14.957Z,28.23
2022-12-15T21:08:36.485Z,29.10
2022-12-15T21:11:05.719Z,31.40
2022-12-15T21:13:30.977Z,26.80
2022-12-15T21:15:53.630Z,28.17
2022-12-15T21:20:58.884Z,33.00
2022-12-15T21:23:24.870Z,30.07
2022-12-15T21:25:47.375Z,27.10
2022-12-15T21:28:11.890Z,29.00
2022-12-15T21:30:35.050Z,28.13
2022-12-15T21:32:56.524Z,28.63
2022-12-15T21:35:19.444Z,29.83
2022-12-15T21:37:42.734Z,29.90
2022-12-15T21:40:05.248Z,30.73
2022-12-15T21:42:27.338Z,26.30
2022-12-15T21:44:48.856Z,28.40
2022-12-15T21:47:24.651Z,31.27
2022-12-15T21:49:46.114Z,33.93
2022-12-15T21:52:09.470Z,32.97
2022-12-15T21:54:33.043Z,37.93
2022-12-15T21:56:54.529Z,39.07
2022-12-15T21:59:22.517Z,35.47
2022-12-15T22:01:44.336Z,29.23
2022-12-15T22:04:19.148Z,33.17
2022-12-15T22:06:45.870Z,29.30
2022-12-15T22:09:11.157Z,26.87
2022-12-15T22:11:32.635Z,31.03
2022-12-15T22:13:56.707Z,30.97
2022-12-15T22:16:18.359Z,30.13
2022-12-15T22:18:39.885Z,35.47
2022-12-15T22:21:01.366Z,26.73
2022-12-15T22:23:22.848Z,33.43
2022-12-15T22:25:45.184Z,33.63
2022-12-15T22:28:17.773Z,32.27
2022-12-15T22:30:39.294Z,28.23
2022-12-15T22:33:02.433Z,32.87
2022-12-15T22:35:26.508Z,32.57
2022-12-15T22:37:49.825Z,38.53
2022-12-15T22:40:13.416Z,41.63
2022-12-15T22:42:35.850Z,37.30
2022-12-15T22:44:57.353Z,37.27
2022-12-15T22:47:18.909Z,34.83
2022-12-15T22:49:41.181Z,36.17
2022-12-15T22:52:03.404Z,36.23
2022-12-15T22:54:27.253Z,31.50
2022-12-15T22:57:19.965Z,31.87
2022-12-15T22:59:47.097Z,31.10
2022-12-15T23:02:09.628Z,31.57
2022-12-15T23:04:31.959Z,33.23
2022-12-15T23:06:53.503Z,34.83
2022-12-15T23:09:16.445Z,34.77
2022-12-15T23:11:38.150Z,32.33
2022-12-15T23:13:59.666Z,32.77
2022-12-15T23:16:21.738Z,34.27
2022-12-15T23:18:43.502Z,31.27
2022-12-15T23:21:05.256Z,30.13
2022-12-15T23:23:28.057Z,29.87
2022-12-15T23:25:49.538Z,30.10
2022-12-15T23:28:11.031Z,30.33
2022-12-15T23:30:32.615Z,31.33
2022-12-15T23:32:57.044Z,30.10
2022-12-15T23:35:18.832Z,28.97
2022-12-15T23:37:40.720Z,34.00
2022-12-15T23:40:02.225Z,36.03
2022-12-15T23:42:23.715Z,32.27
2022-12-15T23:44:45.238Z,36.20
2022-12-15T23:47:07.926Z,32.47
2022-12-15T23:49:30.109Z,30.77
2022-12-15T23:51:51.560Z,31.00
2022-12-15T23:54:13.979Z,32.53
2022-12-15T23:56:35.562Z,36.77
2022-12-15T23:58:58.816Z,40.93
